Time;durP1;ratioP1;P1;durP2;ratioP2;P2;SDS_P1;SDS_P2;PMS_P1;PMS_P2;Temp;Humidity;BMP_temperature;BMP_pressure;BME280_temperature;BME280_humidity;BME280_pressure;Samples;Min_cycle;Max_cycle;Signal;HPM_P1;HPM_P2
2021/04/19 00:00:44;;;;;;;5.23;4.73;;;;;;;9.91;69.93;99172.84;5073327;28;42378;-73
2021/04/19 00:03:11;;;;;;;6.30;5.50;;;;;;;9.89;69.92;99164.13;5110086;28;39596;-74
2021/04/19 00:05:38;;;;;;;5.40;4.90;;;;;;;9.86;69.66;99155.53;5111618;27;41616;-73
2021/04/19 00:08:06;;;;;;;5.90;5.30;;;;;;;9.89;69.53;99158.00;5111174;27;42307;-74
2021/04/19 00:10:34;;;;;;;6.07;5.47;;;;;;;9.88;69.92;99159.81;5134337;27;42822;-73
2021/04/19 00:13:01;;;;;;;6.80;6.07;;;;;;;9.85;69.83;99148.53;5090448;28;40741;-73
2021/04/19 00:15:31;;;;;;;6.13;5.53;;;;;;;9.85;70.07;99153.81;5091270;28;42347;-74
2021/04/19 00:17:59;;;;;;;6.93;6.23;;;;;;;9.85;69.67;99148.53;5105833;27;43586;-74
2021/04/19 00:20:26;;;;;;;7.07;6.37;;;;;;;9.84;69.82;99149.47;5109603;28;42148;-74
2021/04/19 00:22:53;;;;;;;8.03;6.93;;;;;;;9.83;69.74;99145.97;5111636;27;39573;-73
2021/04/19 00:25:20;;;;;;;6.33;5.73;;;;;;;9.84;69.80;99144.16;5107336;27;41633;-73
2021/04/19 00:27:47;;;;;;;6.57;5.97;;;;;;;9.85;69.67;99148.53;5090459;28;42823;-73
2021/04/19 00:30:16;;;;;;;6.87;5.97;;;;;;;9.84;69.80;99141.53;5106510;28;42109;-73
2021/04/19 00:32:44;;;;;;;8.47;7.03;;;;;;;9.82;69.89;99132.81;5100416;28;39971;-74
2021/04/19 00:35:12;;;;;;;8.53;6.23;;;;;;;9.79;69.64;99132.97;5109403;28;42360;-74
2021/04/19 00:37:39;;;;;;;8.43;6.50;;;;;;;9.75;69.83;99128.81;5110971;27;43419;-73
2021/04/19 00:40:09;;;;;;;7.77;6.83;;;;;;;9.79;69.71;99132.97;5111351;27;42105;-74
2021/04/19 00:42:37;;;;;;;6.53;5.93;;;;;;;9.78;69.83;99136.56;5090654;28;40644;-73
2021/04/19 00:45:05;;;;;;;6.97;6.27;;;;;;;9.77;69.74;99142.81;5089213;28;42138;-74
2021/04/19 00:47:32;;;;;;;7.37;5.97;;;;;;;9.78;69.83;99141.84;5096442;28;43254;-73
2021/04/19 00:50:00;;;;;;;7.00;6.30;;;;;;;9.77;69.83;99150.75;5111255;27;42181;-73
2021/04/19 00:52:28;;;;;;;8.10;7.27;;;;;;;9.79;69.52;99143.56;5109974;28;40034;-73
2021/04/19 00:54:58;;;;;;;8.53;6.90;;;;;;;9.77;69.37;99138.34;5111022;27;41302;-73
2021/04/19 00:57:26;;;;;;;6.90;6.20;;;;;;;9.79;69.34;99133.84;5095241;27;44002;-73
2021/04/19 00:59:54;;;;;;;7.00;6.10;;;;;;;9.80;69.27;99134.69;5090665;28;44044;-74
2021/04/19 01:02:21;;;;;;;6.80;6.20;;;;;;;9.80;69.53;99135.53;5123803;27;39948;-73
2021/04/19 01:04:48;;;;;;;7.33;6.63;;;;;;;9.82;69.50;99138.09;5111876;27;41466;-73
2021/04/19 01:07:18;;;;;;;7.03;6.33;;;;;;;9.82;69.58;99138.97;5142762;27;43472;-73
2021/04/19 01:09:46;;;;;;;8.43;6.67;;;;;;;9.83;69.40;99134.53;5109518;28;42773;-73
2021/04/19 01:12:13;;;;;;;6.27;5.60;;;;;;;9.83;69.65;99131.88;5098041;28;38896;-73
2021/04/19 01:14:40;;;;;;;7.70;6.70;;;;;;;9.84;69.70;99134.44;5090261;28;42384;-74
2021/04/19 01:17:08;;;;;;;7.93;7.23;;;;;;;9.86;69.75;99131.72;5088422;28;41834;-73
2021/04/19 01:19:36;;;;;;;7.27;6.57;;;;;;;9.84;69.91;99128.31;5090115;28;42925;-73
2021/04/19 01:22:04;;;;;;;8.17;7.37;;;;;;;9.87;69.68;99136.94;5104957;27;40030;-74
2021/04/19 01:24:31;;;;;;;7.93;7.13;;;;;;;9.89;69.79;99128.91;5088636;28;41335;-74
2021/04/19 01:27:01;;;;;;;7.10;6.40;;;;;;;9.88;70.04;99129.84;5108305;28;42820;-74
2021/04/19 01:29:29;;;;;;;7.60;6.90;;;;;;;9.88;69.97;99140.44;5108752;28;41927;-73
2021/04/19 01:31:56;;;;;;;6.73;6.03;;;;;;;9.88;69.79;99128.06;5092002;28;40368;-73
2021/04/19 01:34:24;;;;;;;7.33;6.63;;;;;;;9.89;69.88;99128.91;5089092;28;41920;-73
2021/04/19 01:36:51;;;;;;;6.87;6.17;;;;;;;9.89;69.69;99128.91;5072288;28;41423;-72
2021/04/19 01:39:20;;;;;;;7.50;6.17;;;;;;;9.80;69.88;99121.47;5110485;27;42679;-73
2021/04/19 01:41:48;;;;;;;7.13;6.43;;;;;;;9.89;69.87;99134.22;5108231;28;39630;-73
2021/04/19 01:44:17;;;;;;;8.73;7.33;;;;;;;9.88;69.76;99127.19;5109776;27;42473;-73
2021/04/19 01:46:47;;;;;;;7.80;7.00;;;;;;;9.87;70.08;99126.34;5131528;27;43444;-74
2021/04/19 01:49:16;;;;;;;7.80;6.77;;;;;;;9.86;69.93;99134.38;5089900;28;42179;-73
2021/04/19 01:51:44;;;;;;;7.57;6.83;;;;;;;9.86;70.06;99126.44;5087692;28;39882;-74
2021/04/19 01:54:13;;;;;;;7.20;6.50;;;;;;;9.87;70.12;99136.06;5089579;28;41566;-73
2021/04/19 01:56:41;;;;;;;7.53;6.83;;;;;;;9.86;69.86;99129.06;5089884;28;43564;-73
2021/04/19 01:59:10;;;;;;;7.90;7.10;;;;;;;9.84;70.22;99129.16;5097325;28;42626;-73
2021/04/19 02:01:43;;;;;;;7.53;6.83;;;;;;;9.85;70.51;99127.38;5108381;28;39748;-73
2021/04/19 02:04:16;;;;;;;8.40;7.60;;;;;;;9.86;70.18;99129.94;5091379;28;41028;-73
2021/04/19 02:06:59;;;;;;;8.40;7.50;;;;;;;9.87;70.54;99125.50;5142928;27;42583;-73
2021/04/19 02:09:35;;;;;;;8.63;7.50;;;;;;;9.83;70.53;99124.81;5090218;28;41470;-72
2021/04/19 02:12:12;;;;;;;8.33;7.57;;;;;;;9.81;70.30;99115.25;5104665;27;40676;-74
2021/04/19 02:14:46;;;;;;;8.77;7.97;;;;;;;9.82;70.55;99117.81;5088576;28;42381;-73
2021/04/19 02:17:28;;;;;;;9.63;8.67;;;;;;;9.85;70.84;99122.06;5087774;28;43190;-73
2021/04/19 02:20:08;;;;;;;7.63;6.93;;;;;;;9.85;70.53;99119.44;5087585;28;43029;-73
2021/04/19 02:22:39;;;;;;;10.07;8.00;;;;;;;9.81;70.93;99126.66;5088007;28;40316;-72
2021/04/19 02:25:15;;;;;;;9.83;8.53;;;;;;;9.80;71.12;99126.75;5088549;28;41456;-72
2021/04/19 02:27:49;;;;;;;8.63;7.33;;;;;;;9.78;70.70;99121.53;5087897;28;42188;-73
2021/04/19 02:30:19;;;;;;;9.30;8.40;;;;;;;9.77;70.83;99124.31;5107556;28;42895;-73
2021/04/19 02:32:51;;;;;;;8.63;7.77;;;;;;;9.61;70.78;99093.41;5106735;28;40108;-73
2021/04/19 02:35:24;;;;;;;9.70;8.70;;;;;;;9.75;70.88;99120.88;5109393;27;41723;-73
2021/04/19 02:38:01;;;;;;;8.60;7.70;;;;;;;9.73;70.72;99113.88;5141964;27;42700;-73
2021/04/19 02:40:35;;;;;;;8.43;7.63;;;;;;;9.78;70.86;99118.03;5107459;28;42847;-73
2021/04/19 02:43:06;;;;;;;7.50;6.80;;;;;;;9.76;70.91;99118.16;5107723;28;40580;-74
2021/04/19 02:45:37;;;;;;;9.13;7.90;;;;;;;9.78;70.75;99125.97;5088887;28;41599;-73
2021/04/19 02:48:09;;;;;;;9.43;8.10;;;;;;;9.76;70.77;99120.81;5089176;28;43393;-72
2021/04/19 02:50:46;;;;;;;9.13;8.17;;;;;;;9.72;71.00;99113.97;5070942;28;42201;-73
2021/04/19 02:53:14;;;;;;;9.47;8.57;;;;;;;9.67;70.89;99103.63;5100833;28;39823;-73
2021/04/19 02:55:41;;;;;;;9.13;8.23;;;;;;;9.72;71.37;99120.09;5091660;28;41564;-72
2021/04/19 02:58:11;;;;;;;11.70;10.20;;;;;;;9.65;73.06;99104.63;5107708;28;42568;-73
2021/04/19 03:00:43;;;;;;;11.27;9.83;;;;;;;9.65;72.92;99100.22;5107936;28;41965;-73
2021/04/19 03:03:13;;;;;;;10.53;9.43;;;;;;;9.64;72.56;99106.44;5100877;27;39932;-72
2021/04/19 03:05:45;;;;;;;10.13;9.10;;;;;;;9.63;72.30;99107.41;5070432;28;40690;-72
2021/04/19 03:08:18;;;;;;;10.63;9.53;;;;;;;9.63;72.45;99103.91;5086883;28;42846;-73
2021/04/19 03:10:53;;;;;;;11.97;10.00;;;;;;;9.61;72.67;99095.19;5121324;27;42269;-73
2021/04/19 03:13:24;;;;;;;10.17;9.17;;;;;;;9.37;72.49;99063.00;5108940;27;39640;-72
2021/04/19 03:15:55;;;;;;;9.57;8.60;;;;;;;9.61;72.32;99103.97;5107852;28;42449;-74
2021/04/19 03:18:25;;;;;;;10.20;9.17;;;;;;;9.62;72.09;99099.53;5107935;27;42633;-73
2021/04/19 03:21:06;;;;;;;9.40;8.40;;;;;;;9.61;72.37;99097.84;5106909;28;42158;-73
2021/04/19 03:23:42;;;;;;;10.10;8.30;;;;;;;9.65;72.22;99102.84;5107797;28;39566;-73
2021/04/19 03:26:11;;;;;;;10.90;9.80;;;;;;;9.64;72.26;99102.97;5089887;28;41333;-73
2021/04/19 03:28:43;;;;;;;10.07;9.07;;;;;;;9.65;72.24;99102.84;5088661;28;43493;-73
2021/04/19 03:31:20;;;;;;;10.03;9.03;;;;;;;9.66;72.01;99101.06;5098280;28;42223;-73
2021/04/19 03:33:51;;;;;;;8.47;7.57;;;;;;;9.66;72.24;99106.34;5125069;27;38851;-73
2021/04/19 03:36:21;;;;;;;11.87;10.00;;;;;;;9.61;73.04;99098.69;5107218;28;41071;-73
2021/04/19 03:38:49;;;;;;;12.33;11.13;;;;;;;9.63;72.50;99104.75;5107216;28;43550;-73
2021/04/19 03:41:22;;;;;;;10.77;9.60;;;;;;;9.64;72.96;99106.44;5086539;28;41512;-73
2021/04/19 03:43:56;;;;;;;12.07;10.90;;;;;;;9.63;73.08;99107.41;5087942;28;39764;-73
2021/04/19 03:46:25;;;;;;;14.07;12.60;;;;;;;9.66;72.95;99107.19;5088362;28;41790;-73
2021/04/19 03:49:12;;;;;;;12.50;11.30;;;;;;;9.64;73.43;99109.06;5104930;28;41773;-72
2021/04/19 03:51:59;;;;;;;13.77;12.33;;;;;;;9.65;73.59;99105.50;5106431;28;42160;-73
2021/04/19 03:54:31;;;;;;;11.93;10.30;;;;;;;9.67;73.61;99106.28;5109450;27;39616;-73
2021/04/19 03:57:03;;;;;;;13.43;11.70;;;;;;;9.64;73.70;99109.06;5098256;28;42337;-73
2021/04/19 03:59:33;;;;;;;12.97;11.67;;;;;;;9.67;73.65;99108.91;5090445;28;43347;-73
2021/04/19 04:02:07;;;;;;;10.57;9.50;;;;;;;9.67;73.43;99097.47;5089533;28;41910;-73
2021/04/19 04:04:57;;;;;;;11.10;9.97;;;;;;;9.73;73.19;99105.94;5094252;28;40163;-73
2021/04/19 04:07:41;;;;;;;12.80;11.47;;;;;;;9.75;73.06;99099.72;5110732;28;42139;-73
2021/04/19 04:10:12;;;;;;;10.43;9.33;;;;;;;9.75;73.26;99102.38;5109804;28;43527;-73
2021/04/19 04:12:39;;;;;;;11.53;10.40;;;;;;;9.77;72.73;99111.91;5097431;27;42913;-73
2021/04/19 04:15:09;;;;;;;11.23;10.10;;;;;;;9.79;73.05;99111.81;5089663;28;38652;-72
2021/04/19 04:17:40;;;;;;;12.87;11.57;;;;;;;9.79;73.33;99107.38;5106792;28;42193;-73
2021/04/19 04:20:13;;;;;;;12.40;11.10;;;;;;;9.82;73.00;99112.50;5096923;28;43212;-74
2021/04/19 04:22:49;;;;;;;11.60;10.40;;;;;;;9.86;72.75;99118.50;5110674;28;42469;-72
2021/04/19 04:25:19;;;;;;;10.73;9.63;;;;;;;9.88;72.54;99119.28;5109969;28;39571;-73
2021/04/19 04:27:48;;;;;;;9.97;8.97;;;;;;;9.91;72.62;99116.44;5096306;28;42135;-73
2021/04/19 04:30:17;;;;;;;10.57;9.57;;;;;;;9.92;72.59;99123.44;5099043;28;42384;-73
2021/04/19 04:33:02;;;;;;;12.07;10.60;;;;;;;9.95;72.33;99125.91;5092985;28;42218;-73
2021/04/19 04:35:37;;;;;;;10.73;9.63;;;;;;;9.95;72.00;99131.19;5105137;28;40780;-73
2021/04/19 04:38:34;;;;;;;11.33;10.10;;;;;;;9.98;72.09;99128.41;5089545;28;41251;-73
2021/04/19 04:41:04;;;;;;;11.83;10.63;;;;;;;9.98;72.70;99128.41;5089220;28;43153;-72
2021/04/19 04:43:35;;;;;;;15.37;13.77;;;;;;;9.96;73.58;99130.28;5110156;28;42254;-73
2021/04/19 04:46:07;;;;;;;16.97;15.13;;;;;;;9.94;74.66;99124.22;5109871;27;39724;-73
2021/04/19 04:48:42;;;;;;;16.93;15.30;;;;;;;9.90;75.50;99125.31;5109391;28;42071;-73
2021/04/19 04:51:13;;;;;;;16.20;14.50;;;;;;;9.88;75.00;99127.19;5110564;27;42466;-73
2021/04/19 04:53:44;;;;;;;16.77;13.00;;;;;;;9.89;75.43;99128.91;5111082;27;43627;-73
2021/04/19 04:56:18;;;;;;;16.37;13.80;;;;;;;9.89;75.86;99127.09;5106804;28;39703;-73
2021/04/19 04:58:46;;;;;;;16.57;14.73;;;;;;;9.88;75.18;99130.69;5108710;28;42474;-74
2021/04/19 05:01:14;;;;;;;16.27;14.57;;;;;;;9.90;74.86;99125.31;5107350;28;43794;-73
2021/04/19 05:03:42;;;;;;;16.10;14.43;;;;;;;9.94;74.62;99133.00;5107898;28;42119;-72
2021/04/19 05:06:10;;;;;;;15.90;14.27;;;;;;;9.95;74.36;99124.13;5108341;28;39912;-73
2021/04/19 05:08:38;;;;;;;15.60;14.00;;;;;;;9.98;74.58;99125.75;5109707;27;41242;-73
2021/04/19 05:11:06;;;;;;;14.83;13.23;;;;;;;10.00;74.10;99126.53;5109300;27;42667;-73
2021/04/19 05:13:33;;;;;;;14.13;12.63;;;;;;;10.00;74.46;99132.66;5109085;28;42602;-73
2021/04/19 05:16:01;;;;;;;13.77;12.07;;;;;;;10.00;74.03;99132.66;5089720;28;39715;-73
2021/04/19 05:18:29;;;;;;;13.93;12.10;;;;;;;9.98;74.03;99129.25;5090556;28;42360;-74
2021/04/19 05:20:56;;;;;;;13.27;11.10;;;;;;;10.00;73.96;99131.81;5108567;28;43244;-73
2021/04/19 05:23:24;;;;;;;15.27;13.67;;;;;;;10.01;74.40;99128.22;5108806;28;42119;-73
2021/04/19 05:25:51;;;;;;;14.20;12.53;;;;;;;9.99;74.35;99127.47;5108962;28;40295;-72
2021/04/19 05:28:19;;;;;;;14.63;13.13;;;;;;;9.97;74.71;99132.84;5109835;27;41562;-72
2021/04/19 05:30:49;;;;;;;17.57;15.47;;;;;;;9.99;74.31;99135.41;5083044;28;42694;-73
2021/04/19 05:33:17;;;;;;;18.27;16.27;;;;;;;9.98;74.56;99133.69;5095495;28;44329;-74
2021/04/19 05:35:45;;;;;;;16.70;15.00;;;;;;;9.97;74.42;99132.84;5108571;28;40450;-72
2021/04/19 05:38:13;;;;;;;14.70;12.67;;;;;;;9.94;74.29;99126.84;5097212;27;41869;-74
2021/04/19 05:40:40;;;;;;;15.63;13.33;;;;;;;10.03;74.02;99143.06;5106538;27;43577;-76
2021/04/19 05:43:08;;;;;;;15.13;13.20;;;;;;;10.06;73.94;99142.03;5106600;28;41876;-74
2021/04/19 05:45:37;;;;;;;14.77;12.83;;;;;;;10.08;74.51;99138.38;5091633;28;38981;-75
2021/04/19 05:48:07;;;;;;;14.13;12.30;;;;;;;10.11;73.95;99144.44;5108921;27;41642;-74
2021/04/19 05:50:36;;;;;;;14.13;11.63;;;;;;;10.14;73.58;99144.28;5108654;27;43229;-74
2021/04/19 05:53:05;;;;;;;12.97;11.60;;;;;;;10.15;73.66;99144.16;5107801;27;42245;-74
2021/04/19 05:55:34;;;;;;;15.20;12.73;;;;;;;10.17;73.74;99149.38;5105920;28;39869;-74
2021/04/19 05:58:09;;;;;;;12.60;10.67;;;;;;;10.15;73.86;99141.50;5100470;28;42492;-74
2021/04/19 06:00:43;;;;;;;13.80;12.37;;;;;;;10.23;74.14;99152.56;5108200;28;43220;-75
2021/04/19 06:03:17;;;;;;;14.90;13.37;;;;;;;10.24;73.83;99146.34;5107765;27;41017;-75
2021/04/19 06:05:55;;;;;;;13.73;12.27;;;;;;;10.27;73.71;99146.16;5107428;28;40738;-73
2021/04/19 06:08:36;;;;;;;21.47;17.00;;;;;;;10.25;74.06;99141.91;5089087;28;41393;-75
2021/04/19 06:11:16;;;;;;;17.23;15.37;;;;;;;10.33;73.62;99140.53;5104691;28;42415;-74
2021/04/19 06:13:56;;;;;;;16.43;13.83;;;;;;;10.39;73.29;99145.47;5070553;28;41965;-73
2021/04/19 06:16:25;;;;;;;15.37;12.73;;;;;;;10.46;73.42;99137.19;5070004;28;39330;-73
2021/04/19 06:18:54;;;;;;;14.87;12.57;;;;;;;10.52;72.96;99144.75;5086785;28;42432;-74
2021/04/19 06:21:22;;;;;;;13.20;11.80;;;;;;;10.52;73.40;99134.16;5095110;28;43615;-74
2021/04/19 06:23:51;;;;;;;13.50;12.07;;;;;;;10.62;73.33;99145.94;5106478;28;42749;-74
2021/04/19 06:26:18;;;;;;;13.67;12.27;;;;;;;10.58;73.17;99123.22;5108287;27;39681;-74
2021/04/19 06:28:49;;;;;;;12.30;11.00;;;;;;;10.78;72.96;99138.78;5108300;27;42244;-74
2021/04/19 06:31:18;;;;;;;13.87;12.23;;;;;;;10.93;72.54;99143.19;5108795;27;43316;-75
2021/04/19 06:34:03;;;;;;;14.07;12.30;;;;;;;11.09;72.45;99136.03;5108142;27;42275;-74
2021/04/19 06:36:32;;;;;;;13.60;11.17;;;;;;;11.27;71.80;99138.50;5108664;27;39765;-74
2021/04/19 06:38:59;;;;;;;12.87;11.47;;;;;;;11.41;71.33;99141.19;5090226;28;40683;-71
2021/04/19 06:41:28;;;;;;;12.60;11.30;;;;;;;11.56;71.00;99145.53;5103152;27;43466;-73
2021/04/19 06:43:56;;;;;;;14.37;12.33;;;;;;;11.62;70.64;99139.84;5087556;28;42001;-73
2021/04/19 06:46:25;;;;;;;13.70;11.87;;;;;;;11.74;70.69;99141.75;5088150;28;40414;-73
2021/04/19 06:48:53;;;;;;;13.23;11.63;;;;;;;11.87;70.34;99139.19;5087820;28;42079;-73
2021/04/19 06:51:21;;;;;;;13.80;12.43;;;;;;;11.97;69.94;99145.66;5087333;28;42528;-73
2021/04/19 06:53:50;;;;;;;14.40;11.90;;;;;;;12.13;69.81;99149.00;5086454;28;41737;-71
2021/04/19 06:56:21;;;;;;;13.53;12.17;;;;;;;12.32;69.75;99146.03;5106566;28;39852;-74
2021/04/19 06:58:51;;;;;;;15.07;13.47;;;;;;;12.38;69.12;99140.31;5108089;27;41557;-73
2021/04/19 07:01:19;;;;;;;13.33;12.00;;;;;;;12.45;68.87;99154.91;5107669;27;44412;-74
2021/04/19 07:03:49;;;;;;;14.53;12.93;;;;;;;12.43;68.75;99154.16;5107057;28;42221;-71
2021/04/19 07:06:17;;;;;;;13.07;11.73;;;;;;;12.38;68.69;99160.69;5090207;28;40715;-72
2021/04/19 07:08:47;;;;;;;13.00;11.70;;;;;;;12.32;68.96;99156.66;5087993;28;41706;-70
2021/04/19 07:11:21;;;;;;;12.40;11.07;;;;;;;12.27;69.16;99158.75;5098036;28;42721;-72
2021/04/19 07:13:50;;;;;;;13.00;11.57;;;;;;;12.18;69.00;99169.97;5107724;28;41960;-73
2021/04/19 07:16:17;;;;;;;12.93;11.13;;;;;;;12.09;69.38;99165.25;5107772;27;39936;-73
2021/04/19 07:18:45;;;;;;;13.20;11.80;;;;;;;12.04;68.98;99154.06;5107992;28;41638;-73
2021/04/19 07:21:12;;;;;;;13.00;11.70;;;;;;;12.11;69.06;99155.38;5106267;28;42624;-74
2021/04/19 07:23:40;;;;;;;13.50;11.50;;;;;;;12.26;68.97;99150.88;5107488;27;42979;-70
2021/04/19 07:26:07;;;;;;;15.00;13.30;;;;;;;12.50;67.69;99155.44;5107139;27;39951;-74
2021/04/19 07:28:37;;;;;;;14.37;12.90;;;;;;;12.79;66.92;99156.19;5086209;28;40390;-73
2021/04/19 07:31:06;;;;;;;13.23;11.87;;;;;;;13.10;66.76;99151.47;5091233;28;42639;-72
2021/04/19 07:33:35;;;;;;;13.43;12.03;;;;;;;13.41;65.66;99159.06;5104687;28;42551;-73
2021/04/19 07:36:22;;;;;;;14.10;12.37;;;;;;;13.58;64.30;99161.41;5106516;28;38826;-73
2021/04/19 07:38:51;;;;;;;12.87;11.57;;;;;;;13.69;64.12;99168.66;5103236;27;41781;-72
2021/04/19 07:41:18;;;;;;;12.30;10.90;;;;;;;13.66;64.19;99166.19;5103647;28;44981;-74
2021/04/19 07:43:47;;;;;;;12.87;11.57;;;;;;;13.73;64.20;99163.94;5110735;27;42329;-74
2021/04/19 07:46:16;;;;;;;12.13;10.83;;;;;;;13.82;64.17;99164.16;5103445;27;40104;-74
2021/04/19 07:48:46;;;;;;;12.30;10.27;;;;;;;13.90;63.53;99156.47;5106673;27;42392;-73
2021/04/19 07:51:28;;;;;;;12.07;10.87;;;;;;;13.98;63.33;99154.09;5092517;28;41943;-73
2021/04/19 07:54:17;;;;;;;12.83;11.43;;;;;;;14.11;61.87;99171.84;5110782;27;42278;-73
2021/04/19 07:56:45;;;;;;;12.27;11.00;;;;;;;14.07;62.24;99163.25;5109609;28;39937;-74
2021/04/19 07:59:25;;;;;;;12.57;11.27;;;;;;;14.16;62.59;99165.25;5108672;28;41780;-73
2021/04/19 08:01:57;;;;;;;13.93;11.93;;;;;;;14.42;62.28;99160.72;5107784;28;42650;-73
2021/04/19 08:04:25;;;;;;;11.93;10.43;;;;;;;14.83;61.24;99151.47;5107724;28;42649;-73
2021/04/19 08:06:52;;;;;;;12.43;11.23;;;;;;;15.35;61.23;99159.00;5109087;28;39700;-74
2021/04/19 08:09:23;;;;;;;12.27;10.97;;;;;;;15.69;60.17;99168.81;5109461;28;41362;-74
2021/04/19 08:11:57;;;;;;;11.17;10.07;;;;;;;16.09;58.93;99171.81;5109842;28;43457;-74
2021/04/19 08:14:27;;;;;;;12.57;11.23;;;;;;;16.30;56.81;99173.75;5096364;27;42910;-73
2021/04/19 08:17:05;;;;;;;14.33;12.83;;;;;;;16.45;57.48;99169.81;5105437;28;40744;-75
2021/04/19 08:19:34;;;;;;;11.70;10.50;;;;;;;16.49;55.79;99182.81;5089434;28;41644;-73
2021/04/19 08:22:13;;;;;;;13.23;11.87;;;;;;;16.61;56.02;99172.94;5093120;28;42496;-74
2021/04/19 08:24:40;;;;;;;12.37;11.00;;;;;;;16.93;55.23;99177.50;5109622;28;42795;-73
2021/04/19 08:27:07;;;;;;;12.90;10.83;;;;;;;16.98;54.88;99177.94;5109197;27;39727;-74
2021/04/19 08:29:46;;;;;;;13.27;11.33;;;;;;;16.97;55.12;99179.78;5088697;28;41252;-72
2021/04/19 08:32:14;;;;;;;13.13;11.47;;;;;;;16.96;55.08;99179.91;5089685;28;42865;-74
2021/04/19 08:34:43;;;;;;;13.27;11.87;;;;;;;16.96;54.85;99187.94;5087755;28;42249;-72
2021/04/19 08:37:11;;;;;;;13.23;11.87;;;;;;;16.91;54.30;99191.00;5091718;28;39908;-72
2021/04/19 08:39:39;;;;;;;12.63;11.33;;;;;;;16.63;54.52;99176.38;5109518;28;41661;-72
2021/04/19 08:42:07;;;;;;;12.67;11.33;;;;;;;16.65;54.50;99189.63;5108256;28;43314;-74
2021/04/19 08:44:35;;;;;;;12.23;10.93;;;;;;;16.63;54.71;99173.72;5109428;28;41935;-74
2021/04/19 08:47:05;;;;;;;12.07;10.63;;;;;;;16.73;54.40;99188.00;5108502;27;41021;-73
2021/04/19 08:49:32;;;;;;;12.70;11.40;;;;;;;16.79;55.15;99182.19;5107595;28;42583;-72
2021/04/19 08:52:00;;;;;;;12.50;11.20;;;;;;;17.07;54.39;99188.72;5092708;28;43613;-74
2021/04/19 08:54:28;;;;;;;12.93;11.60;;;;;;;17.54;53.84;99183.88;5088906;28;42933;-73
2021/04/19 08:56:55;;;;;;;13.77;12.27;;;;;;;18.93;51.90;99201.88;5095213;28;39074;-73
2021/04/19 08:59:23;;;;;;;11.87;10.70;;;;;;;19.63;49.23;99217.72;5110015;27;42119;-72
2021/04/19 09:01:52;;;;;;;14.07;12.43;;;;;;;19.89;48.13;99222.47;5109403;28;41751;-73
2021/04/19 09:04:23;;;;;;;14.97;11.47;;;;;;;19.90;46.79;99225.03;5107909;28;42365;-75
2021/04/19 09:06:51;;;;;;;12.27;11.07;;;;;;;19.77;46.80;99231.69;5110444;27;40676;-73
2021/04/19 09:09:40;;;;;;;12.30;10.83;;;;;;;19.44;47.36;99220.38;5108829;28;41065;-73
2021/04/19 09:12:25;;;;;;;12.03;10.83;;;;;;;19.19;48.08;99212.91;5090808;28;42648;-75
2021/04/19 09:15:10;;;;;;;12.20;11.00;;;;;;;19.04;48.23;99219.72;5109517;27;42136;-75
2021/04/19 09:17:38;;;;;;;13.17;11.87;;;;;;;18.70;47.29;99222.75;5109342;27;40473;-72
2021/04/19 09:20:10;;;;;;;12.53;10.87;;;;;;;18.58;48.89;99202.41;5109273;27;42558;-74
2021/04/19 09:22:37;;;;;;;13.03;11.63;;;;;;;18.43;47.79;99225.19;5107683;28;42484;-74
2021/04/19 09:25:09;;;;;;;14.20;11.97;;;;;;;18.13;47.92;99218.88;5091875;28;42111;-71
2021/04/19 09:27:48;;;;;;;13.07;11.70;;;;;;;17.91;48.93;99217.25;5083263;28;39925;-74
2021/04/19 09:30:34;;;;;;;13.10;11.77;;;;;;;17.70;49.35;99204.84;5087846;28;41332;-73
2021/04/19 09:33:30;;;;;;;12.10;10.80;;;;;;;17.71;50.17;99201.19;5113713;27;43456;-73
2021/04/19 09:35:58;;;;;;;13.33;12.03;;;;;;;17.62;49.79;99200.13;5109035;27;42897;-75
2021/04/19 09:38:51;;;;;;;11.80;10.60;;;;;;;17.63;50.14;99203.66;5107321;28;39050;-72
2021/04/19 09:41:21;;;;;;;12.20;11.00;;;;;;;17.53;49.89;99199.09;5109128;27;43336;-72
2021/04/19 09:43:54;;;;;;;13.87;11.67;;;;;;;17.46;50.34;99203.25;5106753;28;43014;-74
2021/04/19 09:46:42;;;;;;;12.13;10.93;;;;;;;17.62;50.58;99194.75;5103752;28;42286;-72
2021/04/19 09:49:09;;;;;;;12.17;10.70;;;;;;;17.80;50.28;99203.91;5106490;28;39891;-73
2021/04/19 09:51:39;;;;;;;12.10;10.90;;;;;;;17.96;49.17;99214.16;5108320;27;42515;-73
2021/04/19 09:54:09;;;;;;;11.50;10.40;;;;;;;18.14;49.82;99212.53;5107073;28;43124;-71
2021/04/19 09:56:40;;;;;;;11.40;10.30;;;;;;;18.35;49.03;99208.94;5109441;27;42746;-73
2021/04/19 09:59:09;;;;;;;11.73;10.53;;;;;;;18.58;48.90;99213.13;5108354;27;40620;-72
2021/04/19 10:01:37;;;;;;;11.20;10.00;;;;;;;18.57;47.88;99200.66;5107421;28;40622;-71
2021/04/19 10:04:05;;;;;;;13.07;11.20;;;;;;;18.67;47.89;99214.97;5107684;28;39745;-74
2021/04/19 10:06:40;;;;;;;13.77;12.37;;;;;;;18.58;47.43;99223.84;5108847;27;42071;-74
2021/04/19 10:09:09;;;;;;;11.53;10.33;;;;;;;18.59;47.91;99204.09;5106998;27;40710;-73
2021/04/19 10:11:42;;;;;;;10.10;9.10;;;;;;;18.77;47.61;99212.34;5108152;27;42123;-74
2021/04/19 10:14:11;;;;;;;11.07;9.93;;;;;;;18.78;46.94;99209.53;5088464;28;43457;-73
2021/04/19 10:16:43;;;;;;;12.10;10.90;;;;;;;18.76;45.71;99227.59;5087416;28;42646;-72
2021/04/19 10:19:10;;;;;;;11.40;10.20;;;;;;;18.66;47.11;99210.63;5107216;28;40307;-73
2021/04/19 10:21:38;;;;;;;11.63;10.53;;;;;;;18.55;47.23;99213.38;5106657;28;41584;-74
2021/04/19 10:24:14;;;;;;;11.57;10.47;;;;;;;18.30;46.91;99217.38;5108118;27;43317;-75
2021/04/19 10:26:42;;;;;;;11.23;10.10;;;;;;;18.16;48.48;99209.75;5107267;28;42174;-74
2021/04/19 10:29:11;;;;;;;11.70;10.50;;;;;;;18.08;48.29;99202.34;5107435;28;39807;-74
2021/04/19 10:31:45;;;;;;;12.37;11.07;;;;;;;18.02;48.40;99205.59;5099117;27;42405;-75
2021/04/19 10:34:12;;;;;;;10.77;9.67;;;;;;;18.00;48.23;99202.19;5105339;28;43156;-73
2021/04/19 10:36:45;;;;;;;9.83;8.83;;;;;;;17.99;47.84;99205.84;5107942;27;43033;-73
2021/04/19 10:39:15;;;;;;;11.30;10.20;;;;;;;17.88;47.84;99205.94;5107005;28;39435;-73
2021/04/19 10:41:43;;;;;;;11.43;10.23;;;;;;;17.85;48.58;99196.31;5106559;28;42368;-74
2021/04/19 10:44:10;;;;;;;11.20;10.10;;;;;;;17.90;47.77;99206.66;5106753;28;43411;-73
2021/04/19 10:46:40;;;;;;;12.60;9.60;;;;;;;17.82;46.96;99206.44;5107807;27;42763;-74
2021/04/19 10:49:09;;;;;;;10.27;9.17;;;;;;;17.72;47.17;99202.88;5106033;28;39935;-74
2021/04/19 10:51:38;;;;;;;12.37;10.63;;;;;;;17.60;47.19;99207.44;5107717;27;42589;-74
2021/04/19 10:54:08;;;;;;;10.23;9.23;;;;;;;17.49;46.77;99203.00;5106816;28;43157;-75
2021/04/19 10:56:39;;;;;;;10.20;9.10;;;;;;;17.40;47.62;99182.38;5108674;27;42206;-74
2021/04/19 10:59:07;;;;;;;11.80;10.40;;;;;;;17.39;47.96;99191.38;5100362;28;39075;-73
2021/04/19 11:01:37;;;;;;;10.13;9.17;;;;;;;17.25;46.90;99199.72;5087726;28;41552;-72
2021/04/19 11:04:06;;;;;;;9.63;8.63;;;;;;;17.26;48.28;99193.41;5109163;27;43215;-74
2021/04/19 11:06:34;;;;;;;11.00;9.77;;;;;;;17.29;48.60;99185.13;5111055;28;42374;-73
2021/04/19 11:09:03;;;;;;;10.50;9.47;;;;;;;17.22;47.79;99189.28;5111016;27;40253;-74
2021/04/19 11:11:40;;;;;;;11.60;10.40;;;;;;;17.19;48.42;99189.53;5111435;27;41617;-74
2021/04/19 11:14:18;;;;;;;11.83;10.57;;;;;;;17.06;49.70;99179.00;5111481;27;42629;-74
2021/04/19 11:16:59;;;;;;;14.30;12.80;;;;;;;16.99;50.08;99169.78;5096680;27;42746;-74
2021/04/19 11:19:35;;;;;;;15.50;14.00;;;;;;;16.87;50.28;99174.34;5105905;28;39437;-74
2021/04/19 11:22:23;;;;;;;14.43;12.70;;;;;;;16.84;50.60;99174.59;5089898;28;40768;-73
2021/04/19 11:24:51;;;;;;;12.93;11.63;;;;;;;16.77;50.74;99177.91;5111529;27;43518;-73
2021/04/19 11:27:24;;;;;;;13.10;11.87;;;;;;;16.75;50.99;99164.66;5109754;28;42633;-75
2021/04/19 11:29:51;;;;;;;13.20;11.90;;;;;;;16.78;50.45;99171.59;5111476;27;39931;-74
2021/04/19 11:32:31;;;;;;;13.63;12.23;;;;;;;16.84;50.86;99163.91;5109897;28;41442;-74
2021/04/19 11:34:59;;;;;;;12.77;10.87;;;;;;;16.94;50.43;99168.50;5090440;28;41525;-75
2021/04/19 11:37:29;;;;;;;12.87;11.57;;;;;;;17.01;50.81;99153.63;5076815;28;41133;-74
2021/04/19 11:39:57;;;;;;;12.97;11.40;;;;;;;17.20;50.31;99169.81;5110377;27;40514;-75
2021/04/19 11:42:33;;;;;;;14.90;13.40;;;;;;;17.36;50.04;99175.56;5110861;27;41358;-75
2021/04/19 11:45:00;;;;;;;13.77;12.37;;;;;;;17.39;49.08;99175.31;5110022;28;42804;-73